Whitehorse International Airport
CYXY : now visible

Airfield :











YOU CAN JOIN US ON...

 
LOGIN :

Register | Disclaimer

   EN    FR    IT 

 









Legend :    VFR   Marginal VFR   IFR   Intensive IFR   Very Intensive IFR
Visi :
Ceiling :
>= 8 km
>= 3000ft
5 to 8 km
1000 to 3000 ft
1500m to 5 km
500 to 1000 ft
800 to 1500m
200 to 500 ft
< 800m
< 200 ft
Symbols :   Thunderstorms  Fog  Heavy snow  Heavy precipitations  Wind > 20 kt






- Airport Elevation : 2317 ft
- IATA code : YXY


CYXY - Whitehorse International

CURRENT METAR :
  • 070200Z 09006G15KT 040V160 40SM FEW042 BKN073 BKN120 14/03 A2973 RMK SC2AC3AC2 SLP089 DENSITY ALT 3000FT

EXPIRED METARs :
  • 070100Z 14007KT 050V170 40SM BKN063TCU BKN120 14/04 A2973 RMK TCU5AC2 VIRGA SLP088 DENSITY ALT 3000FT
  • 070022Z 09006KT 040V150 40SM BKN062TCU BKN120 15/03 A2973 RMK TCU5AC2 VIRGA SLP086 DENSITY ALT 3100FT
  • 070000Z 07006KT 40SM BKN055TCU BKN120 15/04 A2973 RMK TCU6AC1 OCNL -SHRA SLP086 DENSITY ALT 3100FT

TAF TAF CYXY
Valid from the 07 at 00:00 until the 08 at 00:00 UTC


062338Z 0700/0724 VRB03KT P6SM BKN060 BKN120
TEMPO 0700/0708 P6SM -SHRA
PROB30 0700/0703 VRB15G25KT 5SM TSRA BKN050CB
FM070800 18005KT P6SM OVC040
TEMPO 0708/0712 P6SM -SHRA
FM071200 18005KT P6SM -RA OVC030
TEMPO 0712/0719 5SM -SHRA BR OVC020
BECMG 0717/0719 15010KT RMK NXT FCST BY 070600Z
CZEG FIR / North America



MET'MAP, your aeronautical weather chart ! - Copyright ORBIFLY December 2007 - Disclaimer

ORBIFLY MET'MAP TEAM :

Programming & Development : Alexandra Zaïnal
Concept & original design : Baudouin d'Aumeries
Assistance for programming : Marc-Olivier Méhu
Technical & hardware support : Manuel Goepfert

Contact : metmap@orbifly.com




SOURCES & CREDITS :

   NOAA       Earth
Advisory